sensor_id;sensor_type;location;lat;lon;timestamp;P1;durP1;ratioP1;P2;durP2;ratioP2
15915;SDS011;8057;47.830;-3.870;2022-10-24T00:04:08;16.17;;;3.87;;
15915;SDS011;8057;47.830;-3.870;2022-10-24T07:06:49;19.17;;;4.50;;
15915;SDS011;8057;47.830;-3.870;2022-10-24T07:11:27;23.73;;;4.80;;
15915;SDS011;8057;47.830;-3.870;2022-10-24T07:20:53;17.20;;;4.00;;
15915;SDS011;8057;47.830;-3.870;2022-10-24T07:25:21;15.00;;;3.57;;
15915;SDS011;8057;47.830;-3.870;2022-10-24T07:29:37;15.27;;;3.97;;
15915;SDS011;8057;47.830;-3.870;2022-10-24T07:33:59;15.47;;;3.60;;
15915;SDS011;8057;47.830;-3.870;2022-10-24T07:38:11;23.13;;;4.73;;
15915;SDS011;8057;47.830;-3.870;2022-10-24T07:42:26;15.57;;;4.20;;
15915;SDS011;8057;47.830;-3.870;2022-10-24T07:46:35;16.80;;;4.40;;
15915;SDS011;8057;47.830;-3.870;2022-10-24T07:51:09;23.00;;;4.13;;
15915;SDS011;8057;47.830;-3.870;2022-10-24T07:55:27;22.30;;;4.83;;
15915;SDS011;8057;47.830;-3.870;2022-10-24T07:59:37;20.63;;;4.47;;
15915;SDS011;8057;47.830;-3.870;2022-10-24T08:03:50;25.17;;;4.47;;
15915;SDS011;8057;47.830;-3.870;2022-10-24T08:08:14;21.20;;;4.73;;
15915;SDS011;8057;47.830;-3.870;2022-10-24T08:12:43;23.27;;;4.50;;
15915;SDS011;8057;47.830;-3.870;2022-10-24T08:16:55;24.73;;;5.40;;
15915;SDS011;8057;47.830;-3.870;2022-10-24T08:21:13;18.67;;;4.90;;
15915;SDS011;8057;47.830;-3.870;2022-10-24T08:26:14;19.63;;;4.40;;
15915;SDS011;8057;47.830;-3.870;2022-10-24T08:30:26;24.83;;;4.83;;
15915;SDS011;8057;47.830;-3.870;2022-10-24T08:34:36;19.13;;;4.50;;
15915;SDS011;8057;47.830;-3.870;2022-10-24T08:38:52;18.03;;;4.93;;
15915;SDS011;8057;47.830;-3.870;2022-10-24T08:43:03;24.80;;;5.60;;
15915;SDS011;8057;47.830;-3.870;2022-10-24T08:47:41;22.10;;;4.40;;
15915;SDS011;8057;47.830;-3.870;2022-10-24T08:52:11;20.17;;;4.30;;
15915;SDS011;8057;47.830;-3.870;2022-10-24T08:57:05;24.77;;;5.13;;
15915;SDS011;8057;47.830;-3.870;2022-10-24T09:01:33;16.00;;;3.83;;
15915;SDS011;8057;47.830;-3.870;2022-10-24T09:06:17;20.30;;;3.87;;
15915;SDS011;8057;47.830;-3.870;2022-10-24T09:11:04;18.50;;;4.00;;
15915;SDS011;8057;47.830;-3.870;2022-10-24T09:15:31;20.37;;;4.33;;
15915;SDS011;8057;47.830;-3.870;2022-10-24T09:19:43;18.77;;;3.97;;
15915;SDS011;8057;47.830;-3.870;2022-10-24T09:24:25;16.77;;;3.37;;
15915;SDS011;8057;47.830;-3.870;2022-10-24T09:29:03;15.67;;;4.13;;
15915;SDS011;8057;47.830;-3.870;2022-10-24T09:33:24;25.77;;;4.40;;
15915;SDS011;8057;47.830;-3.870;2022-10-24T09:37:41;21.43;;;4.60;;
15915;SDS011;8057;47.830;-3.870;2022-10-24T09:41:59;17.93;;;4.47;;
15915;SDS011;8057;47.830;-3.870;2022-10-24T09:46:34;17.47;;;4.80;;
15915;SDS011;8057;47.830;-3.870;2022-10-24T09:51:30;21.03;;;4.13;;
15915;SDS011;8057;47.830;-3.870;2022-10-24T09:56:00;18.47;;;3.73;;
15915;SDS011;8057;47.830;-3.870;2022-10-24T10:06:24;19.30;;;4.00;;
15915;SDS011;8057;47.830;-3.870;2022-10-24T10:11:08;18.47;;;4.57;;
15915;SDS011;8057;47.830;-3.870;2022-10-24T10:16:09;18.17;;;4.60;;
15915;SDS011;8057;47.830;-3.870;2022-10-24T10:55:17;21.10;;;3.90;;
15915;SDS011;8057;47.830;-3.870;2022-10-24T11:00:03;13.07;;;3.30;;
15915;SDS011;8057;47.830;-3.870;2022-10-24T11:04:21;17.23;;;3.27;;
15915;SDS011;8057;47.830;-3.870;2022-10-24T11:39:50;20.40;;;3.90;;
15915;SDS011;8057;47.830;-3.870;2022-10-24T14:25:25;13.33;;;3.07;;
15915;SDS011;8057;47.830;-3.870;2022-10-24T14:35:26;14.77;;;3.13;;
15915;SDS011;8057;47.830;-3.870;2022-10-24T14:44:51;18.40;;;3.33;;
15915;SDS011;8057;47.830;-3.870;2022-10-24T15:09:14;14.90;;;3.67;;
15915;SDS011;8057;47.830;-3.870;2022-10-24T15:13:56;13.20;;;2.90;;
15915;SDS011;8057;47.830;-3.870;2022-10-24T15:23:06;13.33;;;2.87;;
15915;SDS011;8057;47.830;-3.870;2022-10-24T15:27:55;17.03;;;4.00;;
15915;SDS011;8057;47.830;-3.870;2022-10-24T18:06:57;12.23;;;2.70;;
15915;SDS011;8057;47.830;-3.870;2022-10-24T18:20:29;12.23;;;2.70;;
15915;SDS011;8057;47.830;-3.870;2022-10-24T19:11:52;12.73;;;2.37;;
15915;SDS011;8057;47.830;-3.870;2022-10-24T19:16:02;10.70;;;2.07;;
15915;SDS011;8057;47.830;-3.870;2022-10-24T19:20:13;16.40;;;2.93;;
15915;SDS011;8057;47.830;-3.870;2022-10-24T19:24:25;14.60;;;2.33;;
15915;SDS011;8057;47.830;-3.870;2022-10-24T19:38:00;12.40;;;2.53;;
15915;SDS011;8057;47.830;-3.870;2022-10-24T19:48:49;9.70;;;1.93;;
15915;SDS011;8057;47.830;-3.870;2022-10-24T20:51:56;11.27;;;2.37;;
15915;SDS011;8057;47.830;-3.870;2022-10-24T21:01:43;12.83;;;2.40;;
15915;SDS011;8057;47.830;-3.870;2022-10-24T21:06:23;12.60;;;2.27;;
15915;SDS011;8057;47.830;-3.870;2022-10-24T21:16:45;15.87;;;2.77;;
15915;SDS011;8057;47.830;-3.870;2022-10-24T21:21:46;9.70;;;2.70;;
15915;SDS011;8057;47.830;-3.870;2022-10-24T21:26:53;11.30;;;2.67;;
15915;SDS011;8057;47.830;-3.870;2022-10-24T21:37:55;11.93;;;3.00;;
15915;SDS011;8057;47.830;-3.870;2022-10-24T21:47:31;12.13;;;2.30;;
15915;SDS011;8057;47.830;-3.870;2022-10-24T21:51:46;11.27;;;2.97;;
15915;SDS011;8057;47.830;-3.870;2022-10-24T21:56:13;11.37;;;2.63;;
15915;SDS011;8057;47.830;-3.870;2022-10-24T22:00:33;12.63;;;3.07;;
15915;SDS011;8057;47.830;-3.870;2022-10-24T22:04:59;12.60;;;2.70;;
15915;SDS011;8057;47.830;-3.870;2022-10-24T22:09:18;13.10;;;3.67;;
15915;SDS011;8057;47.830;-3.870;2022-10-24T22:13:55;14.67;;;2.87;;
15915;SDS011;8057;47.830;-3.870;2022-10-24T22:18:12;17.27;;;2.63;;
15915;SDS011;8057;47.830;-3.870;2022-10-24T22:22:34;11.83;;;2.37;;
15915;SDS011;8057;47.830;-3.870;2022-10-24T22:26:46;18.27;;;3.53;;
15915;SDS011;8057;47.830;-3.870;2022-10-24T22:31:05;11.80;;;2.60;;
15915;SDS011;8057;47.830;-3.870;2022-10-24T22:35:22;13.57;;;2.93;;
15915;SDS011;8057;47.830;-3.870;2022-10-24T22:39:37;17.10;;;3.30;;
15915;SDS011;8057;47.830;-3.870;2022-10-24T22:44:23;15.47;;;3.17;;
15915;SDS011;8057;47.830;-3.870;2022-10-24T22:48:53;10.57;;;2.60;;
15915;SDS011;8057;47.830;-3.870;2022-10-24T22:53:16;17.70;;;3.63;;
15915;SDS011;8057;47.830;-3.870;2022-10-24T22:57:27;13.30;;;3.50;;
15915;SDS011;8057;47.830;-3.870;2022-10-24T23:01:42;14.37;;;2.83;;
15915;SDS011;8057;47.830;-3.870;2022-10-24T23:06:13;11.67;;;2.57;;
15915;SDS011;8057;47.830;-3.870;2022-10-24T23:10:49;16.50;;;2.53;;
15915;SDS011;8057;47.830;-3.870;2022-10-24T23:14:58;13.03;;;2.97;;
15915;SDS011;8057;47.830;-3.870;2022-10-24T23:19:17;15.33;;;3.17;;
15915;SDS011;8057;47.830;-3.870;2022-10-24T23:24:14;13.50;;;2.77;;
15915;SDS011;8057;47.830;-3.870;2022-10-24T23:29:34;19.33;;;3.17;;
15915;SDS011;8057;47.830;-3.870;2022-10-24T23:34:13;12.40;;;3.27;;
15915;SDS011;8057;47.830;-3.870;2022-10-24T23:52:45;12.93;;;2.63;;
15915;SDS011;8057;47.830;-3.870;2022-10-24T23:57:49;14.23;;;3.07;;
